Terminal Aerodrome Forecast
Issued by NWS Blacksburg, VA

Home | Current Version | Previous Version | Text Only | Print | Product List | Glossary On
Versions: 1 2 3 4 5 6 7 8 9 10 11 12 13 14 15 16 17 18 19 20 21 22 23 24 25
000
FTUS41 KRNK 211725
TAFROA
TAF
KROA 211725Z 2118/2218 16006KT P6SM BKN250
     FM220300 00000KT P6SM BKN130
     FM220500 00000KT P6SM VCSH BKN040
     FM220800 00000KT 1SM BR VCSH BKN003 OVC015
     FM221000 00000KT 6SM -RA BR OVC008
     FM221600 00000KT 1SM -DZ BR OVC008=

USA.gov is the U.S. government's official web portal to all federal, state and local government web resources and services.